sensor_id;sensor_type;location;lat;lon;timestamp;temperature;humidity
70214;DHT22;60138;55.808;37.078;2023-11-19T00:00:17;-10.38;74.34
70214;DHT22;60138;55.808;37.078;2023-11-19T00:02:43;-10.40;74.35
70214;DHT22;60138;55.808;37.078;2023-11-19T00:05:10;-10.41;74.31
70214;DHT22;60138;55.808;37.078;2023-11-19T00:07:36;-10.41;74.29
70214;DHT22;60138;55.808;37.078;2023-11-19T00:10:02;-10.41;74.33
70214;DHT22;60138;55.808;37.078;2023-11-19T00:12:29;-10.41;74.29
70214;DHT22;60138;55.808;37.078;2023-11-19T00:14:54;-10.38;74.25
70214;DHT22;60138;55.808;37.078;2023-11-19T00:17:20;-10.40;74.29
70214;DHT22;60138;55.808;37.078;2023-11-19T00:19:46;-10.41;74.25
70214;DHT22;60138;55.808;37.078;2023-11-19T00:22:11;-10.41;74.31
70214;DHT22;60138;55.808;37.078;2023-11-19T00:24:37;-10.41;74.32
70214;DHT22;60138;55.808;37.078;2023-11-19T00:27:03;-10.38;74.32
70214;DHT22;60138;55.808;37.078;2023-11-19T00:29:29;-10.37;74.32
70214;DHT22;60138;55.808;37.078;2023-11-19T00:31:54;-10.40;74.20
70214;DHT22;60138;55.808;37.078;2023-11-19T00:34:20;-10.42;74.24
70214;DHT22;60138;55.808;37.078;2023-11-19T00:36:46;-10.45;74.16
70214;DHT22;60138;55.808;37.078;2023-11-19T00:39:11;-10.44;74.19
70214;DHT22;60138;55.808;37.078;2023-11-19T00:41:37;-10.46;74.21
70214;DHT22;60138;55.808;37.078;2023-11-19T00:44:03;-10.47;74.24
70214;DHT22;60138;55.808;37.078;2023-11-19T00:46:29;-10.48;74.32
70214;DHT22;60138;55.808;37.078;2023-11-19T00:48:54;-10.47;74.37
70214;DHT22;60138;55.808;37.078;2023-11-19T00:51:20;-10.44;74.38
70214;DHT22;60138;55.808;37.078;2023-11-19T00:53:46;-10.44;74.32
70214;DHT22;60138;55.808;37.078;2023-11-19T00:56:11;-10.46;74.25
70214;DHT22;60138;55.808;37.078;2023-11-19T00:58:37;-10.47;74.24
70214;DHT22;60138;55.808;37.078;2023-11-19T01:01:03;-10.49;74.23
70214;DHT22;60138;55.808;37.078;2023-11-19T01:03:29;-10.48;74.22
70214;DHT22;60138;55.808;37.078;2023-11-19T01:05:55;-10.48;74.23
70214;DHT22;60138;55.808;37.078;2023-11-19T01:08:20;-10.47;74.25
70214;DHT22;60138;55.808;37.078;2023-11-19T01:10:46;-10.46;74.24
70214;DHT22;60138;55.808;37.078;2023-11-19T01:13:12;-10.48;74.24
70214;DHT22;60138;55.808;37.078;2023-11-19T01:15:39;-10.47;74.19
70214;DHT22;60138;55.808;37.078;2023-11-19T01:18:05;-10.49;74.22
70214;DHT22;60138;55.808;37.078;2023-11-19T01:20:32;-10.47;74.19
70214;DHT22;60138;55.808;37.078;2023-11-19T01:22:59;-10.44;74.30
70214;DHT22;60138;55.808;37.078;2023-11-19T01:25:25;-10.33;74.44
70214;DHT22;60138;55.808;37.078;2023-11-19T01:27:50;-10.19;74.47
70214;DHT22;60138;55.808;37.078;2023-11-19T01:30:16;-10.01;74.60
70214;DHT22;60138;55.808;37.078;2023-11-19T01:32:42;-9.78;74.60
70214;DHT22;60138;55.808;37.078;2023-11-19T01:35:08;-9.57;74.51
70214;DHT22;60138;55.808;37.078;2023-11-19T01:37:34;-9.42;74.39
70214;DHT22;60138;55.808;37.078;2023-11-19T01:40:00;-9.29;74.25
70214;DHT22;60138;55.808;37.078;2023-11-19T01:42:26;-9.22;74.09
70214;DHT22;60138;55.808;37.078;2023-11-19T01:44:59;-9.13;74.06
70214;DHT22;60138;55.808;37.078;2023-11-19T01:47:27;-9.12;73.90
70214;DHT22;60138;55.808;37.078;2023-11-19T01:49:55;-9.16;73.76
70214;DHT22;60138;55.808;37.078;2023-11-19T01:52:22;-9.20;73.68
70214;DHT22;60138;55.808;37.078;2023-11-19T01:54:48;-9.22;73.77
70214;DHT22;60138;55.808;37.078;2023-11-19T01:57:14;-9.17;73.87
70214;DHT22;60138;55.808;37.078;2023-11-19T01:59:40;-9.12;73.85
70214;DHT22;60138;55.808;37.078;2023-11-19T02:02:06;-9.12;73.80
70214;DHT22;60138;55.808;37.078;2023-11-19T02:04:32;-9.10;73.73
70214;DHT22;60138;55.808;37.078;2023-11-19T02:06:58;-9.09;73.73
70214;DHT22;60138;55.808;37.078;2023-11-19T02:09:24;-9.05;73.76
70214;DHT22;60138;55.808;37.078;2023-11-19T02:11:50;-9.04;73.69
70214;DHT22;60138;55.808;37.078;2023-11-19T02:14:17;-9.01;73.70
70214;DHT22;60138;55.808;37.078;2023-11-19T02:16:44;-8.98;73.65
70214;DHT22;60138;55.808;37.078;2023-11-19T02:19:10;-8.96;73.67
70214;DHT22;60138;55.808;37.078;2023-11-19T02:21:55;-8.90;73.68
70214;DHT22;60138;55.808;37.078;2023-11-19T02:24:25;-8.87;73.70
70214;DHT22;60138;55.808;37.078;2023-11-19T02:27:13;-8.86;73.72
70214;DHT22;60138;55.808;37.078;2023-11-19T02:29:41;-8.89;73.67
70214;DHT22;60138;55.808;37.078;2023-11-19T02:32:06;-8.92;73.69
70214;DHT22;60138;55.808;37.078;2023-11-19T02:34:32;-8.95;73.66
70214;DHT22;60138;55.808;37.078;2023-11-19T02:36:58;-8.97;73.64
70214;DHT22;60138;55.808;37.078;2023-11-19T02:39:24;-8.98;73.68
70214;DHT22;60138;55.808;37.078;2023-11-19T02:41:50;-8.96;73.67
70214;DHT22;60138;55.808;37.078;2023-11-19T02:44:16;-8.94;73.70
70214;DHT22;60138;55.808;37.078;2023-11-19T02:46:41;-8.92;73.67
70214;DHT22;60138;55.808;37.078;2023-11-19T02:49:07;-8.90;73.62
70214;DHT22;60138;55.808;37.078;2023-11-19T02:51:33;-8.90;73.64
70214;DHT22;60138;55.808;37.078;2023-11-19T02:53:59;-8.89;73.67
70214;DHT22;60138;55.808;37.078;2023-11-19T02:56:25;-8.85;73.73
70214;DHT22;60138;55.808;37.078;2023-11-19T02:58:51;-8.74;73.77
70214;DHT22;60138;55.808;37.078;2023-11-19T03:01:26;-8.67;73.77
70214;DHT22;60138;55.808;37.078;2023-11-19T03:03:51;-8.62;73.70
70214;DHT22;60138;55.808;37.078;2023-11-19T03:06:17;-8.62;73.61
70214;DHT22;60138;55.808;37.078;2023-11-19T03:08:43;-8.57;73.69
70214;DHT22;60138;55.808;37.078;2023-11-19T03:11:08;-8.54;73.70
70214;DHT22;60138;55.808;37.078;2023-11-19T03:13:34;-8.52;73.67
70214;DHT22;60138;55.808;37.078;2023-11-19T03:16:00;-8.51;73.65
70214;DHT22;60138;55.808;37.078;2023-11-19T03:18:26;-8.50;73.61
70214;DHT22;60138;55.808;37.078;2023-11-19T03:20:52;-8.48;73.61
70214;DHT22;60138;55.808;37.078;2023-11-19T03:23:17;-8.48;73.61
70214;DHT22;60138;55.808;37.078;2023-11-19T03:25:43;-8.48;73.59
70214;DHT22;60138;55.808;37.078;2023-11-19T03:28:09;-8.49;73.54
70214;DHT22;60138;55.808;37.078;2023-11-19T03:30:34;-8.49;73.54
70214;DHT22;60138;55.808;37.078;2023-11-19T03:33:00;-8.49;73.58
70214;DHT22;60138;55.808;37.078;2023-11-19T03:35:26;-8.49;73.51
70214;DHT22;60138;55.808;37.078;2023-11-19T03:37:51;-8.50;73.44
70214;DHT22;60138;55.808;37.078;2023-11-19T03:40:18;-8.51;73.45
70214;DHT22;60138;55.808;37.078;2023-11-19T03:42:46;-8.55;73.37
70214;DHT22;60138;55.808;37.078;2023-11-19T03:45:12;-8.62;73.35
70214;DHT22;60138;55.808;37.078;2023-11-19T03:47:38;-8.68;73.43
70214;DHT22;60138;55.808;37.078;2023-11-19T03:50:04;-8.74;73.40
70214;DHT22;60138;55.808;37.078;2023-11-19T03:52:30;-8.79;73.42
70214;DHT22;60138;55.808;37.078;2023-11-19T03:54:56;-8.82;73.40
70214;DHT22;60138;55.808;37.078;2023-11-19T03:57:22;-8.90;73.32
70214;DHT22;60138;55.808;37.078;2023-11-19T03:59:47;-8.96;73.36
70214;DHT22;60138;55.808;37.078;2023-11-19T04:02:13;-9.00;73.41
70214;DHT22;60138;55.808;37.078;2023-11-19T04:04:39;-9.00;73.55
70214;DHT22;60138;55.808;37.078;2023-11-19T04:07:05;-8.99;73.54
70214;DHT22;60138;55.808;37.078;2023-11-19T04:09:31;-8.97;73.54
70214;DHT22;60138;55.808;37.078;2023-11-19T04:11:57;-8.89;73.62
70214;DHT22;60138;55.808;37.078;2023-11-19T04:14:23;-8.85;73.64
70214;DHT22;60138;55.808;37.078;2023-11-19T04:16:48;-8.78;73.72
70214;DHT22;60138;55.808;37.078;2023-11-19T04:19:14;-8.69;73.74
70214;DHT22;60138;55.808;37.078;2023-11-19T04:21:40;-8.60;73.73
70214;DHT22;60138;55.808;37.078;2023-11-19T04:24:06;-8.51;73.70
70214;DHT22;60138;55.808;37.078;2023-11-19T04:26:33;-8.43;73.67
70214;DHT22;60138;55.808;37.078;2023-11-19T04:28:59;-8.34;73.65
70214;DHT22;60138;55.808;37.078;2023-11-19T04:31:29;-8.26;73.60
70214;DHT22;60138;55.808;37.078;2023-11-19T04:33:55;-8.20;73.55
70214;DHT22;60138;55.808;37.078;2023-11-19T04:36:20;-8.15;73.49
70214;DHT22;60138;55.808;37.078;2023-11-19T04:38:46;-8.11;73.52
70214;DHT22;60138;55.808;37.078;2023-11-19T04:41:12;-8.05;73.42
70214;DHT22;60138;55.808;37.078;2023-11-19T04:43:37;-8.01;73.37
70214;DHT22;60138;55.808;37.078;2023-11-19T04:46:04;-7.98;73.40
70214;DHT22;60138;55.808;37.078;2023-11-19T04:48:30;-7.93;73.37
70214;DHT22;60138;55.808;37.078;2023-11-19T04:50:55;-7.90;73.33
70214;DHT22;60138;55.808;37.078;2023-11-19T04:53:21;-7.87;73.19
70214;DHT22;60138;55.808;37.078;2023-11-19T04:55:47;-7.85;73.15
70214;DHT22;60138;55.808;37.078;2023-11-19T04:58:13;-7.84;73.17
70214;DHT22;60138;55.808;37.078;2023-11-19T05:00:38;-7.83;73.11
70214;DHT22;60138;55.808;37.078;2023-11-19T05:03:04;-7.83;73.12
70214;DHT22;60138;55.808;37.078;2023-11-19T05:05:30;-7.82;73.12
70214;DHT22;60138;55.808;37.078;2023-11-19T05:07:57;-7.80;73.12
70214;DHT22;60138;55.808;37.078;2023-11-19T05:10:22;-7.78;73.12
70214;DHT22;60138;55.808;37.078;2023-11-19T05:12:48;-7.74;73.21
70214;DHT22;60138;55.808;37.078;2023-11-19T05:15:14;-7.67;73.18
70214;DHT22;60138;55.808;37.078;2023-11-19T05:17:40;-7.62;73.17
70214;DHT22;60138;55.808;37.078;2023-11-19T05:20:05;-7.59;73.08
70214;DHT22;60138;55.808;37.078;2023-11-19T05:22:31;-7.55;73.09
70214;DHT22;60138;55.808;37.078;2023-11-19T05:24:57;-7.47;73.12
70214;DHT22;60138;55.808;37.078;2023-11-19T05:27:23;-7.39;73.22
70214;DHT22;60138;55.808;37.078;2023-11-19T05:29:48;-7.32;73.14
70214;DHT22;60138;55.808;37.078;2023-11-19T05:32:14;-7.27;73.05
70214;DHT22;60138;55.808;37.078;2023-11-19T05:34:40;-7.24;72.99
70214;DHT22;60138;55.808;37.078;2023-11-19T05:37:05;-7.20;73.01
70214;DHT22;60138;55.808;37.078;2023-11-19T05:39:31;-7.17;72.92
70214;DHT22;60138;55.808;37.078;2023-11-19T05:41:57;-7.12;72.90
70214;DHT22;60138;55.808;37.078;2023-11-19T05:44:23;-7.07;72.96
70214;DHT22;60138;55.808;37.078;2023-11-19T05:46:48;-7.04;73.00
70214;DHT22;60138;55.808;37.078;2023-11-19T05:49:14;-6.98;72.93
70214;DHT22;60138;55.808;37.078;2023-11-19T05:51:40;-6.93;73.00
70214;DHT22;60138;55.808;37.078;2023-11-19T05:54:07;-6.88;73.04
70214;DHT22;60138;55.808;37.078;2023-11-19T05:56:34;-6.86;72.90
70214;DHT22;60138;55.808;37.078;2023-11-19T05:58:59;-6.81;72.86
70214;DHT22;60138;55.808;37.078;2023-11-19T06:01:25;-6.79;72.78
70214;DHT22;60138;55.808;37.078;2023-11-19T06:03:51;-6.74;72.83
70214;DHT22;60138;55.808;37.078;2023-11-19T06:06:17;-6.67;72.85
70214;DHT22;60138;55.808;37.078;2023-11-19T06:08:42;-6.63;72.74
70214;DHT22;60138;55.808;37.078;2023-11-19T06:11:10;-6.58;72.67
70214;DHT22;60138;55.808;37.078;2023-11-19T06:13:36;-6.53;72.63
70214;DHT22;60138;55.808;37.078;2023-11-19T06:16:01;-6.51;72.60
70214;DHT22;60138;55.808;37.078;2023-11-19T06:18:27;-6.44;72.67
70214;DHT22;60138;55.808;37.078;2023-11-19T06:20:53;-6.37;72.54
70214;DHT22;60138;55.808;37.078;2023-11-19T06:23:18;-6.34;72.39
70214;DHT22;60138;55.808;37.078;2023-11-19T06:25:44;-6.29;72.36
70214;DHT22;60138;55.808;37.078;2023-11-19T06:28:10;-6.24;72.29
70214;DHT22;60138;55.808;37.078;2023-11-19T06:30:36;-6.21;72.26
70214;DHT22;60138;55.808;37.078;2023-11-19T06:33:01;-6.13;72.26
70214;DHT22;60138;55.808;37.078;2023-11-19T06:35:27;-6.09;72.22
70214;DHT22;60138;55.808;37.078;2023-11-19T06:37:53;-6.07;72.08
70214;DHT22;60138;55.808;37.078;2023-11-19T06:40:18;-6.11;72.02
70214;DHT22;60138;55.808;37.078;2023-11-19T06:42:44;-6.16;71.35
70214;DHT22;60138;55.808;37.078;2023-11-19T06:45:10;-6.14;71.88
70214;DHT22;60138;55.808;37.078;2023-11-19T06:47:36;-6.06;72.00
70214;DHT22;60138;55.808;37.078;2023-11-19T06:50:02;-6.00;71.75
70214;DHT22;60138;55.808;37.078;2023-11-19T06:52:29;-6.01;71.61
70214;DHT22;60138;55.808;37.078;2023-11-19T06:54:55;-6.00;71.79
70214;DHT22;60138;55.808;37.078;2023-11-19T06:57:20;-5.92;71.94
70214;DHT22;60138;55.808;37.078;2023-11-19T06:59:46;-5.83;71.93
70214;DHT22;60138;55.808;37.078;2023-11-19T07:02:12;-5.79;71.50
70214;DHT22;60138;55.808;37.078;2023-11-19T07:04:37;-5.73;71.52
70214;DHT22;60138;55.808;37.078;2023-11-19T07:07:03;-5.65;71.67
70214;DHT22;60138;55.808;37.078;2023-11-19T07:09:29;-5.61;71.55
70214;DHT22;60138;55.808;37.078;2023-11-19T07:11:54;-5.58;71.55
70214;DHT22;60138;55.808;37.078;2023-11-19T07:14:20;-5.53;71.61
70214;DHT22;60138;55.808;37.078;2023-11-19T07:16:46;-5.48;71.53
70214;DHT22;60138;55.808;37.078;2023-11-19T07:19:12;-5.40;71.62
70214;DHT22;60138;55.808;37.078;2023-11-19T07:21:41;-5.38;71.38
70214;DHT22;60138;55.808;37.078;2023-11-19T07:24:07;-5.40;71.39
70214;DHT22;60138;55.808;37.078;2023-11-19T07:26:33;-5.35;71.43
70214;DHT22;60138;55.808;37.078;2023-11-19T07:28:59;-5.31;71.35
70214;DHT22;60138;55.808;37.078;2023-11-19T07:31:24;-5.28;71.23
70214;DHT22;60138;55.808;37.078;2023-11-19T07:33:50;-5.24;71.19
70214;DHT22;60138;55.808;37.078;2023-11-19T07:36:16;-5.15;71.22
70214;DHT22;60138;55.808;37.078;2023-11-19T07:38:42;-5.08;71.16
70214;DHT22;60138;55.808;37.078;2023-11-19T07:41:08;-5.04;71.08
70214;DHT22;60138;55.808;37.078;2023-11-19T07:43:33;-5.03;71.06
70214;DHT22;60138;55.808;37.078;2023-11-19T07:45:59;-4.99;71.14
70214;DHT22;60138;55.808;37.078;2023-11-19T07:48:25;-4.93;71.16
70214;DHT22;60138;55.808;37.078;2023-11-19T07:50:54;-4.84;71.11
70214;DHT22;60138;55.808;37.078;2023-11-19T07:53:20;-4.76;70.96
70214;DHT22;60138;55.808;37.078;2023-11-19T07:55:46;-4.72;70.45
70214;DHT22;60138;55.808;37.078;2023-11-19T07:58:12;-4.70;70.65
70214;DHT22;60138;55.808;37.078;2023-11-19T08:00:38;-4.60;70.71
70214;DHT22;60138;55.808;37.078;2023-11-19T08:03:04;-4.52;70.61
70214;DHT22;60138;55.808;37.078;2023-11-19T08:05:33;-4.43;70.46
70214;DHT22;60138;55.808;37.078;2023-11-19T08:07:59;-4.35;70.40
70214;DHT22;60138;55.808;37.078;2023-11-19T08:10:25;-4.27;70.29
70214;DHT22;60138;55.808;37.078;2023-11-19T08:12:50;-4.21;70.16
70214;DHT22;60138;55.808;37.078;2023-11-19T08:15:16;-4.15;70.15
70214;DHT22;60138;55.808;37.078;2023-11-19T08:17:42;-4.07;70.05
70214;DHT22;60138;55.808;37.078;2023-11-19T08:20:09;-3.98;69.97
70214;DHT22;60138;55.808;37.078;2023-11-19T08:22:35;-3.90;69.85
70214;DHT22;60138;55.808;37.078;2023-11-19T08:25:01;-3.85;69.58
70214;DHT22;60138;55.808;37.078;2023-11-19T08:27:27;-3.85;69.26
70214;DHT22;60138;55.808;37.078;2023-11-19T08:29:54;-3.81;69.42
70214;DHT22;60138;55.808;37.078;2023-11-19T08:32:20;-3.76;69.37
70214;DHT22;60138;55.808;37.078;2023-11-19T08:34:45;-3.71;69.33
70214;DHT22;60138;55.808;37.078;2023-11-19T08:37:11;-3.68;69.11
70214;DHT22;60138;55.808;37.078;2023-11-19T08:39:37;-3.66;69.02
70214;DHT22;60138;55.808;37.078;2023-11-19T08:42:02;-3.66;69.01
70214;DHT22;60138;55.808;37.078;2023-11-19T08:44:28;-3.63;68.92
70214;DHT22;60138;55.808;37.078;2023-11-19T08:46:54;-3.62;68.80
70214;DHT22;60138;55.808;37.078;2023-11-19T08:49:20;-3.62;68.76
70214;DHT22;60138;55.808;37.078;2023-11-19T08:51:46;-3.57;68.74
70214;DHT22;60138;55.808;37.078;2023-11-19T08:54:11;-3.53;68.71
70214;DHT22;60138;55.808;37.078;2023-11-19T08:56:37;-3.53;68.73
70214;DHT22;60138;55.808;37.078;2023-11-19T08:59:03;-3.48;68.78
70214;DHT22;60138;55.808;37.078;2023-11-19T09:01:28;-3.43;68.70
70214;DHT22;60138;55.808;37.078;2023-11-19T09:03:54;-3.39;68.73
70214;DHT22;60138;55.808;37.078;2023-11-19T09:06:20;-3.37;68.71
70214;DHT22;60138;55.808;37.078;2023-11-19T09:08:46;-3.32;68.71
70214;DHT22;60138;55.808;37.078;2023-11-19T09:11:11;-3.27;68.60
70214;DHT22;60138;55.808;37.078;2023-11-19T09:13:37;-3.23;68.46
70214;DHT22;60138;55.808;37.078;2023-11-19T09:16:03;-3.23;68.39
70214;DHT22;60138;55.808;37.078;2023-11-19T09:18:30;-3.25;68.30
70214;DHT22;60138;55.808;37.078;2023-11-19T09:20:55;-3.24;68.24
70214;DHT22;60138;55.808;37.078;2023-11-19T09:23:21;-3.15;68.38
70214;DHT22;60138;55.808;37.078;2023-11-19T09:25:47;-3.06;68.30
70214;DHT22;60138;55.808;37.078;2023-11-19T09:28:12;-2.97;68.07
70214;DHT22;60138;55.808;37.078;2023-11-19T09:30:38;-2.86;68.15
70214;DHT22;60138;55.808;37.078;2023-11-19T09:33:04;-2.88;67.84
70214;DHT22;60138;55.808;37.078;2023-11-19T09:35:29;-2.93;67.39
70214;DHT22;60138;55.808;37.078;2023-11-19T09:37:55;-2.88;67.78
70214;DHT22;60138;55.808;37.078;2023-11-19T09:40:21;-2.84;67.87
70214;DHT22;60138;55.808;37.078;2023-11-19T09:42:47;-2.87;67.75
70214;DHT22;60138;55.808;37.078;2023-11-19T09:45:17;-2.92;67.72
70214;DHT22;60138;55.808;37.078;2023-11-19T09:47:47;-3.00;67.91
70214;DHT22;60138;55.808;37.078;2023-11-19T09:50:18;-3.05;68.13
70214;DHT22;60138;55.808;37.078;2023-11-19T09:52:45;-3.09;67.98
70214;DHT22;60138;55.808;37.078;2023-11-19T09:55:11;-3.18;68.07
70214;DHT22;60138;55.808;37.078;2023-11-19T09:57:39;-3.28;68.29
70214;DHT22;60138;55.808;37.078;2023-11-19T10:00:05;-3.42;66.78
70214;DHT22;60138;55.808;37.078;2023-11-19T10:02:33;-3.64;66.18
70214;DHT22;60138;55.808;37.078;2023-11-19T10:05:00;-3.79;66.75
70214;DHT22;60138;55.808;37.078;2023-11-19T10:07:30;-3.80;67.00
70214;DHT22;60138;55.808;37.078;2023-11-19T10:09:55;-3.81;66.96
70214;DHT22;60138;55.808;37.078;2023-11-19T10:12:21;-3.83;67.30
70214;DHT22;60138;55.808;37.078;2023-11-19T10:14:47;-3.83;67.17
70214;DHT22;60138;55.808;37.078;2023-11-19T10:17:14;-3.81;67.06
70214;DHT22;60138;55.808;37.078;2023-11-19T10:19:42;-3.85;66.20
70214;DHT22;60138;55.808;37.078;2023-11-19T10:22:08;-3.93;66.30
70214;DHT22;60138;55.808;37.078;2023-11-19T10:24:34;-4.01;66.43
70214;DHT22;60138;55.808;37.078;2023-11-19T10:27:00;-4.05;66.39
70214;DHT22;60138;55.808;37.078;2023-11-19T10:29:26;-4.04;66.61
70214;DHT22;60138;55.808;37.078;2023-11-19T10:31:58;-3.98;66.69
70214;DHT22;60138;55.808;37.078;2023-11-19T10:34:27;-3.98;66.56
70214;DHT22;60138;55.808;37.078;2023-11-19T10:36:53;-4.00;66.20
70214;DHT22;60138;55.808;37.078;2023-11-19T10:39:19;-4.02;66.39
70214;DHT22;60138;55.808;37.078;2023-11-19T10:41:45;-4.01;66.56
70214;DHT22;60138;55.808;37.078;2023-11-19T10:44:10;-3.99;66.47
70214;DHT22;60138;55.808;37.078;2023-11-19T10:46:41;-3.99;66.45
70214;DHT22;60138;55.808;37.078;2023-11-19T10:49:08;-3.99;66.53
70214;DHT22;60138;55.808;37.078;2023-11-19T10:51:34;-3.94;66.44
70214;DHT22;60138;55.808;37.078;2023-11-19T10:54:04;-3.92;66.37
70214;DHT22;60138;55.808;37.078;2023-11-19T10:56:31;-3.92;66.29
70214;DHT22;60138;55.808;37.078;2023-11-19T10:58:59;-3.89;66.67
70214;DHT22;60138;55.808;37.078;2023-11-19T11:01:27;-3.80;66.63
70214;DHT22;60138;55.808;37.078;2023-11-19T11:03:55;-3.77;65.99
70214;DHT22;60138;55.808;37.078;2023-11-19T11:06:22;-3.72;66.53
70214;DHT22;60138;55.808;37.078;2023-11-19T11:08:48;-3.65;66.62
70214;DHT22;60138;55.808;37.078;2023-11-19T11:11:15;-3.55;66.73
70214;DHT22;60138;55.808;37.078;2023-11-19T11:13:42;-3.43;66.69
70214;DHT22;60138;55.808;37.078;2023-11-19T11:16:08;-3.34;66.43
70214;DHT22;60138;55.808;37.078;2023-11-19T11:18:34;-3.28;66.53
70214;DHT22;60138;55.808;37.078;2023-11-19T11:21:09;-3.19;66.43
70214;DHT22;60138;55.808;37.078;2023-11-19T11:38:08;-2.97;65.53
70214;DHT22;60138;55.808;37.078;2023-11-19T11:40:34;-2.98;64.82
70214;DHT22;60138;55.808;37.078;2023-11-19T11:43:00;-3.02;64.95
70214;DHT22;60138;55.808;37.078;2023-11-19T11:45:36;-3.07;64.35
70214;DHT22;60138;55.808;37.078;2023-11-19T11:50:32;-3.11;64.58
70214;DHT22;60138;55.808;37.078;2023-11-19T11:55:37;-3.10;64.43
70214;DHT22;60138;55.808;37.078;2023-11-19T11:58:27;-3.08;64.54
70214;DHT22;60138;55.808;37.078;2023-11-19T12:00:54;-3.12;64.62
70214;DHT22;60138;55.808;37.078;2023-11-19T12:03:22;-3.16;64.37
70214;DHT22;60138;55.808;37.078;2023-11-19T12:05:48;-3.22;64.48
70214;DHT22;60138;55.808;37.078;2023-11-19T12:08:18;-3.25;64.72
70214;DHT22;60138;55.808;37.078;2023-11-19T12:10:51;-3.27;64.91
70214;DHT22;60138;55.808;37.078;2023-11-19T12:13:18;-3.26;65.07
70214;DHT22;60138;55.808;37.078;2023-11-19T12:18:28;-3.31;65.02
70214;DHT22;60138;55.808;37.078;2023-11-19T12:20:55;-3.30;64.96
70214;DHT22;60138;55.808;37.078;2023-11-19T12:23:22;-3.32;64.91
70214;DHT22;60138;55.808;37.078;2023-11-19T12:25:48;-3.39;64.34
70214;DHT22;60138;55.808;37.078;2023-11-19T12:28:14;-3.45;64.79
70214;DHT22;60138;55.808;37.078;2023-11-19T12:30:40;-3.46;64.93
70214;DHT22;60138;55.808;37.078;2023-11-19T12:33:13;-3.47;65.01
70214;DHT22;60138;55.808;37.078;2023-11-19T12:35:39;-3.48;64.73
70214;DHT22;60138;55.808;37.078;2023-11-19T12:38:05;-3.52;64.97
70214;DHT22;60138;55.808;37.078;2023-11-19T12:40:31;-3.54;64.85
70214;DHT22;60138;55.808;37.078;2023-11-19T12:42:57;-3.58;65.00
70214;DHT22;60138;55.808;37.078;2023-11-19T12:45:23;-3.68;64.95
70214;DHT22;60138;55.808;37.078;2023-11-19T12:48:07;-3.78;65.03
70214;DHT22;60138;55.808;37.078;2023-11-19T12:50:57;-3.92;65.08
70214;DHT22;60138;55.808;37.078;2023-11-19T12:53:24;-3.97;65.50
70214;DHT22;60138;55.808;37.078;2023-11-19T12:55:52;-4.01;65.54
70214;DHT22;60138;55.808;37.078;2023-11-19T12:58:31;-4.10;65.39
70214;DHT22;60138;55.808;37.078;2023-11-19T13:01:08;-4.16;65.46
70214;DHT22;60138;55.808;37.078;2023-11-19T13:03:36;-4.23;65.73
70214;DHT22;60138;55.808;37.078;2023-11-19T13:06:08;-4.25;65.94
70214;DHT22;60138;55.808;37.078;2023-11-19T13:08:42;-4.31;65.93
70214;DHT22;60138;55.808;37.078;2023-11-19T13:11:09;-4.38;65.84
70214;DHT22;60138;55.808;37.078;2023-11-19T13:13:59;-4.44;66.07
70214;DHT22;60138;55.808;37.078;2023-11-19T13:16:26;-4.51;66.02
70214;DHT22;60138;55.808;37.078;2023-11-19T13:18:52;-4.55;66.18
70214;DHT22;60138;55.808;37.078;2023-11-19T13:21:18;-4.60;66.29
70214;DHT22;60138;55.808;37.078;2023-11-19T13:23:44;-4.64;66.39
70214;DHT22;60138;55.808;37.078;2023-11-19T13:26:10;-4.67;66.48
70214;DHT22;60138;55.808;37.078;2023-11-19T13:28:36;-4.71;66.50
70214;DHT22;60138;55.808;37.078;2023-11-19T13:31:02;-4.75;66.58
70214;DHT22;60138;55.808;37.078;2023-11-19T13:33:28;-4.75;66.79
70214;DHT22;60138;55.808;37.078;2023-11-19T13:35:54;-4.78;66.78
70214;DHT22;60138;55.808;37.078;2023-11-19T13:38:19;-4.78;66.85
70214;DHT22;60138;55.808;37.078;2023-11-19T13:40:45;-4.79;66.90
70214;DHT22;60138;55.808;37.078;2023-11-19T13:43:11;-4.80;67.02
70214;DHT22;60138;55.808;37.078;2023-11-19T13:45:37;-4.80;67.17
70214;DHT22;60138;55.808;37.078;2023-11-19T13:48:02;-4.82;67.35
70214;DHT22;60138;55.808;37.078;2023-11-19T13:50:28;-4.80;67.44
70214;DHT22;60138;55.808;37.078;2023-11-19T13:52:54;-4.80;67.53
70214;DHT22;60138;55.808;37.078;2023-11-19T13:55:20;-4.80;67.65
70214;DHT22;60138;55.808;37.078;2023-11-19T13:57:46;-4.80;67.67
70214;DHT22;60138;55.808;37.078;2023-11-19T14:00:12;-4.79;67.65
70214;DHT22;60138;55.808;37.078;2023-11-19T14:02:42;-4.71;67.78
70214;DHT22;60138;55.808;37.078;2023-11-19T14:05:09;-4.67;67.55
70214;DHT22;60138;55.808;37.078;2023-11-19T14:07:35;-4.63;67.29
70214;DHT22;60138;55.808;37.078;2023-11-19T14:10:01;-4.60;67.18
70214;DHT22;60138;55.808;37.078;2023-11-19T14:12:29;-4.59;67.20
70214;DHT22;60138;55.808;37.078;2023-11-19T14:14:54;-4.60;67.00
70214;DHT22;60138;55.808;37.078;2023-11-19T14:17:20;-4.63;67.01
70214;DHT22;60138;55.808;37.078;2023-11-19T14:19:46;-4.65;66.96
70214;DHT22;60138;55.808;37.078;2023-11-19T14:22:12;-4.71;66.75
70214;DHT22;60138;55.808;37.078;2023-11-19T14:24:38;-4.71;66.94
70214;DHT22;60138;55.808;37.078;2023-11-19T14:27:04;-4.67;66.98
70214;DHT22;60138;55.808;37.078;2023-11-19T14:29:30;-4.67;66.92
70214;DHT22;60138;55.808;37.078;2023-11-19T14:31:55;-4.65;66.80
70214;DHT22;60138;55.808;37.078;2023-11-19T14:34:22;-4.65;66.76
70214;DHT22;60138;55.808;37.078;2023-11-19T14:36:47;-4.67;66.49
70214;DHT22;60138;55.808;37.078;2023-11-19T14:39:13;-4.68;66.49
70214;DHT22;60138;55.808;37.078;2023-11-19T14:41:39;-4.70;66.41
70214;DHT22;60138;55.808;37.078;2023-11-19T14:44:05;-4.74;66.23
70214;DHT22;60138;55.808;37.078;2023-11-19T14:46:31;-4.76;66.21
70214;DHT22;60138;55.808;37.078;2023-11-19T14:48:57;-4.80;66.00
70214;DHT22;60138;55.808;37.078;2023-11-19T14:51:23;-4.83;66.16
70214;DHT22;60138;55.808;37.078;2023-11-19T14:53:49;-4.83;66.17
70214;DHT22;60138;55.808;37.078;2023-11-19T14:56:14;-4.83;66.26
70214;DHT22;60138;55.808;37.078;2023-11-19T14:58:40;-4.85;66.17
70214;DHT22;60138;55.808;37.078;2023-11-19T15:01:06;-4.83;66.31
70214;DHT22;60138;55.808;37.078;2023-11-19T15:03:32;-4.83;66.18
70214;DHT22;60138;55.808;37.078;2023-11-19T15:05:58;-4.83;66.08
70214;DHT22;60138;55.808;37.078;2023-11-19T15:08:24;-4.79;66.06
70214;DHT22;60138;55.808;37.078;2023-11-19T15:10:49;-4.75;66.14
70214;DHT22;60138;55.808;37.078;2023-11-19T15:13:15;-4.73;66.16
70214;DHT22;60138;55.808;37.078;2023-11-19T15:15:41;-4.73;66.07
70214;DHT22;60138;55.808;37.078;2023-11-19T15:18:07;-4.73;66.10
70214;DHT22;60138;55.808;37.078;2023-11-19T15:20:32;-4.72;65.97
70214;DHT22;60138;55.808;37.078;2023-11-19T15:22:58;-4.73;66.07
70214;DHT22;60138;55.808;37.078;2023-11-19T15:25:24;-4.71;66.02
70214;DHT22;60138;55.808;37.078;2023-11-19T15:27:50;-4.75;66.07
70214;DHT22;60138;55.808;37.078;2023-11-19T15:30:16;-4.79;66.07
70214;DHT22;60138;55.808;37.078;2023-11-19T15:32:42;-4.80;66.13